sensor_id;sensor_type;location;lat;lon;timestamp;P1;durP1;ratioP1;P2;durP2;ratioP2
26038;SDS011;13815;52.374;4.882;2022-07-18T00:02:17;33.22;;;24.17;;
26038;SDS011;13815;52.374;4.882;2022-07-18T00:04:43;32.75;;;24.00;;
26038;SDS011;13815;52.374;4.882;2022-07-18T00:07:09;33.00;;;24.33;;
26038;SDS011;13815;52.374;4.882;2022-07-18T00:09:38;32.92;;;24.38;;
26038;SDS011;13815;52.374;4.882;2022-07-18T00:12:04;32.72;;;24.33;;
26038;SDS011;13815;52.374;4.882;2022-07-18T00:14:31;32.42;;;24.30;;
26038;SDS011;13815;52.374;4.882;2022-07-18T00:16:56;32.40;;;24.17;;
26038;SDS011;13815;52.374;4.882;2022-07-18T00:19:23;33.03;;;24.70;;
26038;SDS011;13815;52.374;4.882;2022-07-18T00:21:48;33.53;;;24.70;;
26038;SDS011;13815;52.374;4.882;2022-07-18T00:24:14;32.92;;;24.50;;
26038;SDS011;13815;52.374;4.882;2022-07-18T00:26:39;33.40;;;24.38;;
26038;SDS011;13815;52.374;4.882;2022-07-18T00:29:05;32.63;;;24.20;;
26038;SDS011;13815;52.374;4.882;2022-07-18T00:31:31;32.72;;;24.85;;
26038;SDS011;13815;52.374;4.882;2022-07-18T00:33:56;32.78;;;24.75;;
26038;SDS011;13815;52.374;4.882;2022-07-18T00:36:22;32.22;;;24.48;;
26038;SDS011;13815;52.374;4.882;2022-07-18T00:38:47;32.78;;;24.67;;
26038;SDS011;13815;52.374;4.882;2022-07-18T00:41:16;33.00;;;24.70;;
26038;SDS011;13815;52.374;4.882;2022-07-18T00:43:42;32.50;;;24.33;;
26038;SDS011;13815;52.374;4.882;2022-07-18T00:46:08;32.90;;;24.73;;
26038;SDS011;13815;52.374;4.882;2022-07-18T00:48:33;32.97;;;24.75;;
26038;SDS011;13815;52.374;4.882;2022-07-18T00:50:58;32.08;;;24.45;;
26038;SDS011;13815;52.374;4.882;2022-07-18T00:53:24;32.00;;;24.30;;
26038;SDS011;13815;52.374;4.882;2022-07-18T00:55:49;31.73;;;24.25;;
26038;SDS011;13815;52.374;4.882;2022-07-18T00:58:15;32.10;;;24.30;;
26038;SDS011;13815;52.374;4.882;2022-07-18T01:00:40;31.23;;;23.98;;
26038;SDS011;13815;52.374;4.882;2022-07-18T01:03:25;31.88;;;24.58;;
26038;SDS011;13815;52.374;4.882;2022-07-18T01:05:50;31.35;;;24.20;;
26038;SDS011;13815;52.374;4.882;2022-07-18T01:08:16;31.50;;;24.35;;
26038;SDS011;13815;52.374;4.882;2022-07-18T01:10:41;31.73;;;24.30;;
26038;SDS011;13815;52.374;4.882;2022-07-18T01:13:07;31.38;;;23.60;;
26038;SDS011;13815;52.374;4.882;2022-07-18T01:15:32;32.00;;;24.08;;
26038;SDS011;13815;52.374;4.882;2022-07-18T01:17:58;31.45;;;23.83;;
26038;SDS011;13815;52.374;4.882;2022-07-18T01:20:30;31.50;;;23.77;;
26038;SDS011;13815;52.374;4.882;2022-07-18T01:25:22;31.60;;;23.67;;
26038;SDS011;13815;52.374;4.882;2022-07-18T01:27:47;32.08;;;23.90;;
26038;SDS011;13815;52.374;4.882;2022-07-18T01:30:13;32.20;;;23.98;;
26038;SDS011;13815;52.374;4.882;2022-07-18T01:32:39;31.65;;;23.75;;
26038;SDS011;13815;52.374;4.882;2022-07-18T01:35:05;32.10;;;24.35;;
26038;SDS011;13815;52.374;4.882;2022-07-18T01:37:30;31.90;;;24.42;;
26038;SDS011;13815;52.374;4.882;2022-07-18T01:39:55;32.33;;;24.15;;
26038;SDS011;13815;52.374;4.882;2022-07-18T01:42:21;32.53;;;24.27;;
26038;SDS011;13815;52.374;4.882;2022-07-18T01:44:46;32.47;;;24.27;;
26038;SDS011;13815;52.374;4.882;2022-07-18T01:47:12;32.33;;;24.10;;
26038;SDS011;13815;52.374;4.882;2022-07-18T01:49:38;32.85;;;24.20;;
26038;SDS011;13815;52.374;4.882;2022-07-18T01:52:04;33.30;;;24.45;;
26038;SDS011;13815;52.374;4.882;2022-07-18T01:54:30;32.28;;;24.10;;
26038;SDS011;13815;52.374;4.882;2022-07-18T01:56:57;32.35;;;24.33;;
26038;SDS011;13815;52.374;4.882;2022-07-18T01:59:24;32.50;;;24.05;;
26038;SDS011;13815;52.374;4.882;2022-07-18T02:01:49;32.50;;;23.88;;
26038;SDS011;13815;52.374;4.882;2022-07-18T02:04:15;32.83;;;24.35;;
26038;SDS011;13815;52.374;4.882;2022-07-18T02:06:41;32.78;;;24.15;;
26038;SDS011;13815;52.374;4.882;2022-07-18T02:09:07;32.30;;;24.05;;
26038;SDS011;13815;52.374;4.882;2022-07-18T02:11:33;31.90;;;23.92;;
26038;SDS011;13815;52.374;4.882;2022-07-18T02:13:59;32.00;;;23.92;;
26038;SDS011;13815;52.374;4.882;2022-07-18T02:16:24;32.50;;;24.13;;
26038;SDS011;13815;52.374;4.882;2022-07-18T02:18:50;32.08;;;23.95;;
26038;SDS011;13815;52.374;4.882;2022-07-18T02:21:15;31.67;;;23.73;;
26038;SDS011;13815;52.374;4.882;2022-07-18T02:23:41;32.13;;;23.90;;
26038;SDS011;13815;52.374;4.882;2022-07-18T02:26:07;31.52;;;22.85;;
26038;SDS011;13815;52.374;4.882;2022-07-18T02:28:33;31.25;;;23.05;;
26038;SDS011;13815;52.374;4.882;2022-07-18T02:30:58;31.75;;;23.02;;
26038;SDS011;13815;52.374;4.882;2022-07-18T02:33:24;31.63;;;23.13;;
26038;SDS011;13815;52.374;4.882;2022-07-18T02:35:49;32.22;;;23.55;;
26038;SDS011;13815;52.374;4.882;2022-07-18T02:38:15;31.63;;;23.15;;
26038;SDS011;13815;52.374;4.882;2022-07-18T02:40:41;32.17;;;23.35;;
26038;SDS011;13815;52.374;4.882;2022-07-18T02:43:07;31.67;;;22.90;;
26038;SDS011;13815;52.374;4.882;2022-07-18T02:45:33;32.15;;;23.20;;
26038;SDS011;13815;52.374;4.882;2022-07-18T02:47:58;31.80;;;23.15;;
26038;SDS011;13815;52.374;4.882;2022-07-18T02:50:23;32.67;;;24.13;;
26038;SDS011;13815;52.374;4.882;2022-07-18T02:52:49;32.35;;;23.98;;
26038;SDS011;13815;52.374;4.882;2022-07-18T02:55:15;32.83;;;24.10;;
26038;SDS011;13815;52.374;4.882;2022-07-18T02:57:40;32.92;;;23.88;;
26038;SDS011;13815;52.374;4.882;2022-07-18T03:00:08;32.08;;;23.40;;
26038;SDS011;13815;52.374;4.882;2022-07-18T03:02:35;32.78;;;23.73;;
26038;SDS011;13815;52.374;4.882;2022-07-18T03:05:01;31.80;;;23.42;;
26038;SDS011;13815;52.374;4.882;2022-07-18T03:07:27;32.22;;;23.55;;
26038;SDS011;13815;52.374;4.882;2022-07-18T03:09:52;32.03;;;23.25;;
26038;SDS011;13815;52.374;4.882;2022-07-18T03:12:18;31.83;;;23.35;;
26038;SDS011;13815;52.374;4.882;2022-07-18T03:14:44;31.60;;;23.58;;
26038;SDS011;13815;52.374;4.882;2022-07-18T03:17:09;32.22;;;23.60;;
26038;SDS011;13815;52.374;4.882;2022-07-18T03:19:35;33.22;;;23.95;;
26038;SDS011;13815;52.374;4.882;2022-07-18T03:22:01;32.10;;;23.17;;
26038;SDS011;13815;52.374;4.882;2022-07-18T03:24:27;31.40;;;23.08;;
26038;SDS011;13815;52.374;4.882;2022-07-18T03:26:53;31.10;;;23.08;;
26038;SDS011;13815;52.374;4.882;2022-07-18T03:29:21;31.35;;;23.10;;
26038;SDS011;13815;52.374;4.882;2022-07-18T03:31:46;31.48;;;23.25;;
26038;SDS011;13815;52.374;4.882;2022-07-18T03:34:12;31.73;;;23.38;;
26038;SDS011;13815;52.374;4.882;2022-07-18T03:36:37;31.40;;;23.27;;
26038;SDS011;13815;52.374;4.882;2022-07-18T03:39:03;31.65;;;23.20;;
26038;SDS011;13815;52.374;4.882;2022-07-18T03:41:29;31.35;;;23.38;;
26038;SDS011;13815;52.374;4.882;2022-07-18T03:43:54;31.35;;;23.27;;
26038;SDS011;13815;52.374;4.882;2022-07-18T03:46:20;30.88;;;22.90;;
26038;SDS011;13815;52.374;4.882;2022-07-18T03:48:45;30.83;;;22.80;;
26038;SDS011;13815;52.374;4.882;2022-07-18T03:51:11;31.30;;;23.30;;
26038;SDS011;13815;52.374;4.882;2022-07-18T03:53:36;30.92;;;22.95;;
26038;SDS011;13815;52.374;4.882;2022-07-18T03:56:02;31.40;;;23.17;;
26038;SDS011;13815;52.374;4.882;2022-07-18T03:58:27;31.25;;;23.10;;
26038;SDS011;13815;52.374;4.882;2022-07-18T04:00:53;31.33;;;23.15;;
26038;SDS011;13815;52.374;4.882;2022-07-18T04:03:18;31.55;;;23.55;;
26038;SDS011;13815;52.374;4.882;2022-07-18T04:05:44;31.15;;;23.10;;
26038;SDS011;13815;52.374;4.882;2022-07-18T04:08:09;31.05;;;23.08;;
26038;SDS011;13815;52.374;4.882;2022-07-18T04:10:35;30.38;;;22.48;;
26038;SDS011;13815;52.374;4.882;2022-07-18T04:13:00;30.15;;;22.23;;
26038;SDS011;13815;52.374;4.882;2022-07-18T04:15:26;31.20;;;22.33;;
26038;SDS011;13815;52.374;4.882;2022-07-18T04:17:52;31.13;;;22.25;;
26038;SDS011;13815;52.374;4.882;2022-07-18T04:20:18;30.98;;;22.30;;
26038;SDS011;13815;52.374;4.882;2022-07-18T04:25:10;31.00;;;22.45;;
26038;SDS011;13815;52.374;4.882;2022-07-18T04:27:36;31.85;;;22.65;;
26038;SDS011;13815;52.374;4.882;2022-07-18T04:30:02;31.00;;;22.60;;
26038;SDS011;13815;52.374;4.882;2022-07-18T04:32:29;30.90;;;23.10;;
26038;SDS011;13815;52.374;4.882;2022-07-18T04:34:54;31.08;;;23.02;;
26038;SDS011;13815;52.374;4.882;2022-07-18T04:37:20;31.50;;;23.00;;
26038;SDS011;13815;52.374;4.882;2022-07-18T04:39:45;31.55;;;22.83;;
26038;SDS011;13815;52.374;4.882;2022-07-18T04:42:10;31.58;;;22.92;;
26038;SDS011;13815;52.374;4.882;2022-07-18T04:44:36;31.40;;;22.98;;
26038;SDS011;13815;52.374;4.882;2022-07-18T04:47:01;31.30;;;22.58;;
26038;SDS011;13815;52.374;4.882;2022-07-18T04:49:26;30.42;;;22.65;;
26038;SDS011;13815;52.374;4.882;2022-07-18T04:51:52;30.83;;;22.77;;
26038;SDS011;13815;52.374;4.882;2022-07-18T04:54:17;30.90;;;22.75;;
26038;SDS011;13815;52.374;4.882;2022-07-18T04:56:43;31.20;;;22.88;;
26038;SDS011;13815;52.374;4.882;2022-07-18T04:59:08;30.35;;;22.58;;
26038;SDS011;13815;52.374;4.882;2022-07-18T05:01:33;30.98;;;22.52;;
26038;SDS011;13815;52.374;4.882;2022-07-18T05:04:00;31.42;;;22.70;;
26038;SDS011;13815;52.374;4.882;2022-07-18T05:06:25;30.52;;;22.50;;
26038;SDS011;13815;52.374;4.882;2022-07-18T05:08:51;31.25;;;22.95;;
26038;SDS011;13815;52.374;4.882;2022-07-18T05:11:16;30.85;;;22.65;;
26038;SDS011;13815;52.374;4.882;2022-07-18T05:13:42;30.23;;;22.50;;
26038;SDS011;13815;52.374;4.882;2022-07-18T05:16:07;29.52;;;22.20;;
26038;SDS011;13815;52.374;4.882;2022-07-18T05:18:32;29.55;;;22.25;;
26038;SDS011;13815;52.374;4.882;2022-07-18T05:20:58;29.35;;;22.45;;
26038;SDS011;13815;52.374;4.882;2022-07-18T05:23:23;29.40;;;22.95;;
26038;SDS011;13815;52.374;4.882;2022-07-18T05:25:49;29.33;;;22.90;;
26038;SDS011;13815;52.374;4.882;2022-07-18T05:28:15;29.55;;;22.80;;
26038;SDS011;13815;52.374;4.882;2022-07-18T05:30:40;29.27;;;22.67;;
26038;SDS011;13815;52.374;4.882;2022-07-18T05:33:06;28.80;;;22.55;;
26038;SDS011;13815;52.374;4.882;2022-07-18T05:35:31;28.63;;;22.88;;
26038;SDS011;13815;52.374;4.882;2022-07-18T05:37:57;29.08;;;22.77;;
26038;SDS011;13815;52.374;4.882;2022-07-18T05:40:22;29.27;;;22.75;;
26038;SDS011;13815;52.374;4.882;2022-07-18T05:42:48;29.05;;;22.63;;
26038;SDS011;13815;52.374;4.882;2022-07-18T05:45:14;30.35;;;22.88;;
26038;SDS011;13815;52.374;4.882;2022-07-18T05:47:40;30.98;;;22.80;;
26038;SDS011;13815;52.374;4.882;2022-07-18T05:50:06;29.88;;;22.35;;
26038;SDS011;13815;52.374;4.882;2022-07-18T05:52:34;30.00;;;22.27;;
26038;SDS011;13815;52.374;4.882;2022-07-18T05:55:02;30.83;;;22.38;;
26038;SDS011;13815;52.374;4.882;2022-07-18T05:57:28;29.88;;;22.05;;
26038;SDS011;13815;52.374;4.882;2022-07-18T05:59:53;30.70;;;22.42;;
26038;SDS011;13815;52.374;4.882;2022-07-18T06:02:18;30.15;;;21.98;;
26038;SDS011;13815;52.374;4.882;2022-07-18T06:04:44;30.00;;;22.17;;
26038;SDS011;13815;52.374;4.882;2022-07-18T06:07:09;29.70;;;22.40;;
26038;SDS011;13815;52.374;4.882;2022-07-18T06:09:35;29.70;;;22.23;;
26038;SDS011;13815;52.374;4.882;2022-07-18T06:12:02;29.63;;;22.42;;
26038;SDS011;13815;52.374;4.882;2022-07-18T06:14:28;29.73;;;22.23;;
26038;SDS011;13815;52.374;4.882;2022-07-18T06:16:53;29.35;;;22.27;;
26038;SDS011;13815;52.374;4.882;2022-07-18T06:19:19;28.73;;;21.90;;
26038;SDS011;13815;52.374;4.882;2022-07-18T06:21:44;28.70;;;21.88;;
26038;SDS011;13815;52.374;4.882;2022-07-18T06:24:10;29.65;;;22.13;;
26038;SDS011;13815;52.374;4.882;2022-07-18T06:26:35;30.00;;;22.10;;
26038;SDS011;13815;52.374;4.882;2022-07-18T06:29:00;30.60;;;22.38;;
26038;SDS011;13815;52.374;4.882;2022-07-18T06:31:26;30.15;;;22.20;;
26038;SDS011;13815;52.374;4.882;2022-07-18T06:33:51;30.70;;;21.90;;
26038;SDS011;13815;52.374;4.882;2022-07-18T06:36:16;30.77;;;22.27;;
26038;SDS011;13815;52.374;4.882;2022-07-18T06:38:42;31.17;;;22.52;;
26038;SDS011;13815;52.374;4.882;2022-07-18T06:41:08;30.77;;;22.40;;
26038;SDS011;13815;52.374;4.882;2022-07-18T06:43:33;30.73;;;22.00;;
26038;SDS011;13815;52.374;4.882;2022-07-18T06:45:59;30.92;;;22.17;;
26038;SDS011;13815;52.374;4.882;2022-07-18T06:48:24;30.75;;;21.98;;
26038;SDS011;13815;52.374;4.882;2022-07-18T06:50:50;30.35;;;22.00;;
26038;SDS011;13815;52.374;4.882;2022-07-18T06:53:15;30.30;;;22.15;;
26038;SDS011;13815;52.374;4.882;2022-07-18T06:55:41;30.70;;;21.35;;
26038;SDS011;13815;52.374;4.882;2022-07-18T06:58:06;30.63;;;21.58;;
26038;SDS011;13815;52.374;4.882;2022-07-18T07:00:31;31.85;;;21.95;;
26038;SDS011;13815;52.374;4.882;2022-07-18T07:02:57;32.53;;;22.10;;
26038;SDS011;13815;52.374;4.882;2022-07-18T07:05:24;32.75;;;22.48;;
26038;SDS011;13815;52.374;4.882;2022-07-18T07:07:49;31.00;;;22.20;;
26038;SDS011;13815;52.374;4.882;2022-07-18T07:10:16;30.85;;;22.17;;
26038;SDS011;13815;52.374;4.882;2022-07-18T07:12:43;31.30;;;22.35;;
26038;SDS011;13815;52.374;4.882;2022-07-18T07:15:10;30.58;;;22.13;;
26038;SDS011;13815;52.374;4.882;2022-07-18T07:17:36;31.40;;;22.17;;
26038;SDS011;13815;52.374;4.882;2022-07-18T07:20:05;31.88;;;22.50;;
26038;SDS011;13815;52.374;4.882;2022-07-18T07:22:32;31.13;;;22.75;;
26038;SDS011;13815;52.374;4.882;2022-07-18T07:24:58;30.88;;;23.10;;
26038;SDS011;13815;52.374;4.882;2022-07-18T07:27:23;31.52;;;22.85;;
26038;SDS011;13815;52.374;4.882;2022-07-18T07:29:49;31.38;;;22.58;;
26038;SDS011;13815;52.374;4.882;2022-07-18T07:32:14;31.35;;;22.67;;
26038;SDS011;13815;52.374;4.882;2022-07-18T07:34:40;31.63;;;22.75;;
26038;SDS011;13815;52.374;4.882;2022-07-18T07:37:05;31.40;;;22.77;;
26038;SDS011;13815;52.374;4.882;2022-07-18T07:39:30;31.50;;;23.17;;
26038;SDS011;13815;52.374;4.882;2022-07-18T07:41:56;30.98;;;22.77;;
26038;SDS011;13815;52.374;4.882;2022-07-18T07:44:21;30.67;;;22.95;;
26038;SDS011;13815;52.374;4.882;2022-07-18T07:46:46;31.67;;;23.10;;
26038;SDS011;13815;52.374;4.882;2022-07-18T07:49:12;30.95;;;22.80;;
26038;SDS011;13815;52.374;4.882;2022-07-18T07:51:37;32.22;;;22.77;;
26038;SDS011;13815;52.374;4.882;2022-07-18T07:54:03;33.15;;;23.65;;
26038;SDS011;13815;52.374;4.882;2022-07-18T07:56:30;32.80;;;23.45;;
26038;SDS011;13815;52.374;4.882;2022-07-18T07:58:55;34.08;;;23.70;;
26038;SDS011;13815;52.374;4.882;2022-07-18T08:01:21;31.60;;;23.52;;
26038;SDS011;13815;52.374;4.882;2022-07-18T08:03:46;31.63;;;23.38;;
26038;SDS011;13815;52.374;4.882;2022-07-18T08:06:13;33.72;;;23.60;;
26038;SDS011;13815;52.374;4.882;2022-07-18T08:08:39;30.95;;;23.38;;
26038;SDS011;13815;52.374;4.882;2022-07-18T08:11:05;30.52;;;22.77;;
26038;SDS011;13815;52.374;4.882;2022-07-18T08:13:31;31.38;;;23.50;;
26038;SDS011;13815;52.374;4.882;2022-07-18T08:15:56;31.77;;;23.80;;
26038;SDS011;13815;52.374;4.882;2022-07-18T08:18:21;30.95;;;23.00;;
26038;SDS011;13815;52.374;4.882;2022-07-18T08:20:47;30.92;;;22.75;;
26038;SDS011;13815;52.374;4.882;2022-07-18T08:23:12;30.80;;;22.65;;
26038;SDS011;13815;52.374;4.882;2022-07-18T08:25:38;31.58;;;22.77;;
26038;SDS011;13815;52.374;4.882;2022-07-18T08:28:05;30.17;;;22.50;;
26038;SDS011;13815;52.374;4.882;2022-07-18T08:30:32;29.63;;;22.45;;
26038;SDS011;13815;52.374;4.882;2022-07-18T08:32:57;30.40;;;22.73;;
26038;SDS011;13815;52.374;4.882;2022-07-18T08:35:23;29.67;;;22.40;;
26038;SDS011;13815;52.374;4.882;2022-07-18T08:37:49;29.80;;;22.38;;
26038;SDS011;13815;52.374;4.882;2022-07-18T08:40:15;30.05;;;22.65;;
26038;SDS011;13815;52.374;4.882;2022-07-18T08:42:40;30.70;;;22.75;;
26038;SDS011;13815;52.374;4.882;2022-07-18T08:45:06;30.60;;;22.60;;
26038;SDS011;13815;52.374;4.882;2022-07-18T08:47:32;30.77;;;22.92;;
26038;SDS011;13815;52.374;4.882;2022-07-18T08:49:58;30.40;;;22.42;;
26038;SDS011;13815;52.374;4.882;2022-07-18T08:52:26;30.58;;;22.58;;
26038;SDS011;13815;52.374;4.882;2022-07-18T08:54:51;29.65;;;22.30;;
26038;SDS011;13815;52.374;4.882;2022-07-18T08:57:17;30.08;;;22.52;;
26038;SDS011;13815;52.374;4.882;2022-07-18T08:59:43;30.48;;;23.35;;
26038;SDS011;13815;52.374;4.882;2022-07-18T09:02:09;30.90;;;23.65;;
26038;SDS011;13815;52.374;4.882;2022-07-18T09:04:36;31.38;;;23.40;;
26038;SDS011;13815;52.374;4.882;2022-07-18T09:07:03;31.73;;;23.50;;
26038;SDS011;13815;52.374;4.882;2022-07-18T09:09:29;31.73;;;23.55;;
26038;SDS011;13815;52.374;4.882;2022-07-18T09:11:56;32.03;;;24.05;;
26038;SDS011;13815;52.374;4.882;2022-07-18T09:14:42;32.25;;;25.13;;
26038;SDS011;13815;52.374;4.882;2022-07-18T09:17:10;30.92;;;23.63;;
26038;SDS011;13815;52.374;4.882;2022-07-18T09:22:41;32.47;;;23.48;;
26038;SDS011;13815;52.374;4.882;2022-07-18T09:25:17;32.80;;;23.70;;
26038;SDS011;13815;52.374;4.882;2022-07-18T09:27:47;32.90;;;23.70;;
26038;SDS011;13815;52.374;4.882;2022-07-18T09:33:04;34.20;;;24.20;;
26038;SDS011;13815;52.374;4.882;2022-07-18T09:35:31;33.58;;;24.48;;
26038;SDS011;13815;52.374;4.882;2022-07-18T09:38:10;34.40;;;24.13;;
26038;SDS011;13815;52.374;4.882;2022-07-18T09:40:46;33.42;;;23.35;;
26038;SDS011;13815;52.374;4.882;2022-07-18T09:43:14;34.60;;;24.40;;
26038;SDS011;13815;52.374;4.882;2022-07-18T09:45:43;33.33;;;23.58;;
26038;SDS011;13815;52.374;4.882;2022-07-18T09:48:16;34.15;;;23.55;;
26038;SDS011;13815;52.374;4.882;2022-07-18T09:53:21;34.25;;;23.90;;
26038;SDS011;13815;52.374;4.882;2022-07-18T09:58:20;33.25;;;23.42;;
26038;SDS011;13815;52.374;4.882;2022-07-18T10:00:49;33.30;;;23.67;;
26038;SDS011;13815;52.374;4.882;2022-07-18T10:03:16;32.35;;;23.20;;
26038;SDS011;13815;52.374;4.882;2022-07-18T10:05:43;33.13;;;23.73;;
26038;SDS011;13815;52.374;4.882;2022-07-18T10:08:10;34.13;;;24.17;;
26038;SDS011;13815;52.374;4.882;2022-07-18T10:10:37;33.08;;;23.80;;
26038;SDS011;13815;52.374;4.882;2022-07-18T10:13:04;33.08;;;23.48;;
26038;SDS011;13815;52.374;4.882;2022-07-18T10:15:32;32.40;;;23.35;;
26038;SDS011;13815;52.374;4.882;2022-07-18T10:17:59;21.23;;;20.33;;
26038;SDS011;13815;52.374;4.882;2022-07-18T10:20:26;30.42;;;22.80;;
26038;SDS011;13815;52.374;4.882;2022-07-18T10:22:54;33.10;;;24.27;;
26038;SDS011;13815;52.374;4.882;2022-07-18T10:25:21;31.77;;;24.90;;
26038;SDS011;13815;52.374;4.882;2022-07-18T10:27:53;32.42;;;24.30;;
26038;SDS011;13815;52.374;4.882;2022-07-18T10:30:29;31.23;;;23.45;;
26038;SDS011;13815;52.374;4.882;2022-07-18T10:32:56;30.75;;;23.77;;
26038;SDS011;13815;52.374;4.882;2022-07-18T10:35:57;31.30;;;23.40;;
26038;SDS011;13815;52.374;4.882;2022-07-18T10:38:28;30.88;;;23.25;;
26038;SDS011;13815;52.374;4.882;2022-07-18T10:41:06;32.20;;;23.48;;
26038;SDS011;13815;52.374;4.882;2022-07-18T10:43:34;32.28;;;23.45;;
26038;SDS011;13815;52.374;4.882;2022-07-18T10:46:02;31.45;;;23.50;;
26038;SDS011;13815;52.374;4.882;2022-07-18T10:51:10;31.77;;;23.80;;
26038;SDS011;13815;52.374;4.882;2022-07-18T10:58:56;33.63;;;23.95;;
26038;SDS011;13815;52.374;4.882;2022-07-18T11:01:23;32.15;;;23.58;;
26038;SDS011;13815;52.374;4.882;2022-07-18T11:03:49;31.67;;;23.25;;
26038;SDS011;13815;52.374;4.882;2022-07-18T11:06:15;32.78;;;23.80;;
26038;SDS011;13815;52.374;4.882;2022-07-18T11:08:40;32.28;;;23.27;;
26038;SDS011;13815;52.374;4.882;2022-07-18T11:11:06;32.28;;;23.23;;
26038;SDS011;13815;52.374;4.882;2022-07-18T11:13:34;34.55;;;24.88;;
26038;SDS011;13815;52.374;4.882;2022-07-18T11:23:42;32.42;;;23.33;;
26038;SDS011;13815;52.374;4.882;2022-07-18T11:26:13;31.60;;;23.42;;
26038;SDS011;13815;52.374;4.882;2022-07-18T11:28:39;32.53;;;24.33;;
26038;SDS011;13815;52.374;4.882;2022-07-18T11:31:09;31.67;;;23.52;;
26038;SDS011;13815;52.374;4.882;2022-07-18T11:33:39;32.45;;;24.10;;
26038;SDS011;13815;52.374;4.882;2022-07-18T11:36:13;32.22;;;24.05;;
26038;SDS011;13815;52.374;4.882;2022-07-18T11:38:46;33.00;;;24.33;;
26038;SDS011;13815;52.374;4.882;2022-07-18T11:41:13;34.13;;;25.83;;
26038;SDS011;13815;52.374;4.882;2022-07-18T11:43:38;35.78;;;27.02;;
26038;SDS011;13815;52.374;4.882;2022-07-18T11:46:05;33.80;;;26.95;;
26038;SDS011;13815;52.374;4.882;2022-07-18T11:48:32;35.22;;;26.92;;
26038;SDS011;13815;52.374;4.882;2022-07-18T11:50:58;35.83;;;28.10;;
26038;SDS011;13815;52.374;4.882;2022-07-18T11:53:24;35.17;;;27.42;;
26038;SDS011;13815;52.374;4.882;2022-07-18T11:55:51;35.58;;;27.65;;
26038;SDS011;13815;52.374;4.882;2022-07-18T11:58:17;34.72;;;27.23;;
26038;SDS011;13815;52.374;4.882;2022-07-18T12:00:43;35.05;;;27.38;;
26038;SDS011;13815;52.374;4.882;2022-07-18T12:03:14;35.15;;;26.42;;
26038;SDS011;13815;52.374;4.882;2022-07-18T12:05:42;35.05;;;26.80;;
26038;SDS011;13815;52.374;4.882;2022-07-18T12:16:27;36.42;;;27.15;;
26038;SDS011;13815;52.374;4.882;2022-07-18T12:18:56;35.20;;;26.63;;
26038;SDS011;13815;52.374;4.882;2022-07-18T12:21:24;35.90;;;27.10;;
26038;SDS011;13815;52.374;4.882;2022-07-18T12:23:49;36.95;;;28.20;;
26038;SDS011;13815;52.374;4.882;2022-07-18T12:26:28;36.75;;;27.92;;
26038;SDS011;13815;52.374;4.882;2022-07-18T12:29:04;37.13;;;28.42;;
26038;SDS011;13815;52.374;4.882;2022-07-18T12:31:37;36.00;;;28.20;;
26038;SDS011;13815;52.374;4.882;2022-07-18T12:34:09;34.75;;;26.40;;
26038;SDS011;13815;52.374;4.882;2022-07-18T12:36:49;34.70;;;26.13;;
26038;SDS011;13815;52.374;4.882;2022-07-18T12:39:30;34.70;;;25.88;;
26038;SDS011;13815;52.374;4.882;2022-07-18T12:41:57;35.15;;;26.20;;
26038;SDS011;13815;52.374;4.882;2022-07-18T12:44:24;35.70;;;27.30;;
26038;SDS011;13815;52.374;4.882;2022-07-18T12:46:50;36.63;;;27.63;;
26038;SDS011;13815;52.374;4.882;2022-07-18T12:49:15;37.20;;;28.27;;
26038;SDS011;13815;52.374;4.882;2022-07-18T12:51:41;35.40;;;26.40;;
26038;SDS011;13815;52.374;4.882;2022-07-18T12:54:06;34.45;;;26.25;;
26038;SDS011;13815;52.374;4.882;2022-07-18T12:56:31;36.22;;;26.77;;
26038;SDS011;13815;52.374;4.882;2022-07-18T12:58:57;35.38;;;26.27;;
26038;SDS011;13815;52.374;4.882;2022-07-18T13:01:22;35.00;;;26.88;;
26038;SDS011;13815;52.374;4.882;2022-07-18T13:03:50;34.15;;;25.83;;
26038;SDS011;13815;52.374;4.882;2022-07-18T13:06:16;34.33;;;25.85;;
26038;SDS011;13815;52.374;4.882;2022-07-18T13:08:41;36.67;;;28.25;;
26038;SDS011;13815;52.374;4.882;2022-07-18T13:11:06;35.70;;;26.38;;
26038;SDS011;13815;52.374;4.882;2022-07-18T13:13:32;35.55;;;26.48;;
26038;SDS011;13815;52.374;4.882;2022-07-18T13:15:57;35.40;;;26.63;;
26038;SDS011;13815;52.374;4.882;2022-07-18T13:18:23;35.93;;;26.13;;
26038;SDS011;13815;52.374;4.882;2022-07-18T13:20:48;36.95;;;26.80;;
26038;SDS011;13815;52.374;4.882;2022-07-18T13:23:14;36.22;;;26.25;;
26038;SDS011;13815;52.374;4.882;2022-07-18T13:25:40;36.83;;;26.40;;
26038;SDS011;13815;52.374;4.882;2022-07-18T13:28:06;38.55;;;26.70;;
26038;SDS011;13815;52.374;4.882;2022-07-18T13:30:31;37.95;;;27.73;;
26038;SDS011;13815;52.374;4.882;2022-07-18T13:32:57;37.30;;;27.70;;
26038;SDS011;13815;52.374;4.882;2022-07-18T13:35:22;37.05;;;28.25;;
26038;SDS011;13815;52.374;4.882;2022-07-18T13:37:48;35.75;;;26.38;;
26038;SDS011;13815;52.374;4.882;2022-07-18T13:40:13;36.28;;;27.27;;
26038;SDS011;13815;52.374;4.882;2022-07-18T13:42:39;36.50;;;27.45;;
26038;SDS011;13815;52.374;4.882;2022-07-18T13:45:04;35.35;;;27.05;;
26038;SDS011;13815;52.374;4.882;2022-07-18T13:47:31;36.95;;;28.27;;
26038;SDS011;13815;52.374;4.882;2022-07-18T13:49:56;35.85;;;27.15;;
26038;SDS011;13815;52.374;4.882;2022-07-18T13:52:21;35.42;;;26.73;;
26038;SDS011;13815;52.374;4.882;2022-07-18T13:54:47;35.47;;;26.85;;
26038;SDS011;13815;52.374;4.882;2022-07-18T13:57:14;37.00;;;27.75;;
26038;SDS011;13815;52.374;4.882;2022-07-18T13:59:39;37.00;;;27.23;;
26038;SDS011;13815;52.374;4.882;2022-07-18T14:02:04;38.53;;;27.85;;
26038;SDS011;13815;52.374;4.882;2022-07-18T14:04:30;37.53;;;27.80;;
26038;SDS011;13815;52.374;4.882;2022-07-18T14:06:55;36.47;;;26.95;;
26038;SDS011;13815;52.374;4.882;2022-07-18T14:09:21;37.30;;;27.48;;
26038;SDS011;13815;52.374;4.882;2022-07-18T14:11:46;36.80;;;27.50;;
26038;SDS011;13815;52.374;4.882;2022-07-18T14:14:11;36.85;;;27.33;;
26038;SDS011;13815;52.374;4.882;2022-07-18T14:16:37;36.03;;;27.08;;
26038;SDS011;13815;52.374;4.882;2022-07-18T14:19:02;35.95;;;26.75;;
26038;SDS011;13815;52.374;4.882;2022-07-18T14:21:31;36.03;;;27.30;;
26038;SDS011;13815;52.374;4.882;2022-07-18T14:23:57;36.15;;;27.15;;
26038;SDS011;13815;52.374;4.882;2022-07-18T14:26:22;36.35;;;26.85;;
26038;SDS011;13815;52.374;4.882;2022-07-18T14:28:48;36.72;;;27.65;;
26038;SDS011;13815;52.374;4.882;2022-07-18T14:31:14;36.40;;;27.55;;
26038;SDS011;13815;52.374;4.882;2022-07-18T14:33:42;36.60;;;27.13;;
26038;SDS011;13815;52.374;4.882;2022-07-18T14:36:07;35.92;;;26.60;;
26038;SDS011;13815;52.374;4.882;2022-07-18T14:38:32;36.10;;;27.00;;
26038;SDS011;13815;52.374;4.882;2022-07-18T14:40:58;36.33;;;26.83;;
26038;SDS011;13815;52.374;4.882;2022-07-18T14:43:23;36.15;;;26.98;;
26038;SDS011;13815;52.374;4.882;2022-07-18T14:45:49;37.13;;;27.27;;
26038;SDS011;13815;52.374;4.882;2022-07-18T14:48:14;36.63;;;27.08;;
26038;SDS011;13815;52.374;4.882;2022-07-18T14:50:40;37.10;;;27.50;;
26038;SDS011;13815;52.374;4.882;2022-07-18T14:53:05;36.10;;;27.33;;
26038;SDS011;13815;52.374;4.882;2022-07-18T14:55:30;36.33;;;27.00;;
26038;SDS011;13815;52.374;4.882;2022-07-18T14:57:56;35.45;;;26.75;;